sensor_id;sensor_type;location;lat;lon;timestamp;P1;durP1;ratioP1;P2;durP2;ratioP2
65275;SDS011;51875;49.994;14.052;2022-11-20T00:00:49;43.03;;;16.48;;
65275;SDS011;51875;49.994;14.052;2022-11-20T00:02:08;49.17;;;17.27;;
65275;SDS011;51875;49.994;14.052;2022-11-20T00:03:23;38.63;;;15.65;;
65275;SDS011;51875;49.994;14.052;2022-11-20T00:04:39;41.70;;;15.38;;
65275;SDS011;51875;49.994;14.052;2022-11-20T00:05:59;43.97;;;16.63;;
65275;SDS011;51875;49.994;14.052;2022-11-20T00:07:15;44.88;;;16.67;;
65275;SDS011;51875;49.994;14.052;2022-11-20T00:08:30;45.03;;;16.58;;
65275;SDS011;51875;49.994;14.052;2022-11-20T00:09:46;48.33;;;17.15;;
65275;SDS011;51875;49.994;14.052;2022-11-20T00:11:06;45.28;;;17.35;;
65275;SDS011;51875;49.994;14.052;2022-11-20T00:12:29;39.72;;;16.30;;
65275;SDS011;51875;49.994;14.052;2022-11-20T00:13:45;44.75;;;16.48;;
65275;SDS011;51875;49.994;14.052;2022-11-20T00:15:02;42.88;;;16.60;;
65275;SDS011;51875;49.994;14.052;2022-11-20T00:16:19;43.78;;;17.35;;
65275;SDS011;51875;49.994;14.052;2022-11-20T00:17:37;46.00;;;17.20;;
65275;SDS011;51875;49.994;14.052;2022-11-20T00:18:53;43.60;;;16.55;;
65275;SDS011;51875;49.994;14.052;2022-11-20T00:20:09;44.35;;;16.58;;
65275;SDS011;51875;49.994;14.052;2022-11-20T00:21:26;46.70;;;17.42;;
65275;SDS011;51875;49.994;14.052;2022-11-20T00:22:43;43.70;;;16.35;;
65275;SDS011;51875;49.994;14.052;2022-11-20T00:23:58;41.05;;;15.38;;
65275;SDS011;51875;49.994;14.052;2022-11-20T00:25:14;50.58;;;17.92;;
65275;SDS011;51875;49.994;14.052;2022-11-20T00:26:30;46.88;;;17.23;;
65275;SDS011;51875;49.994;14.052;2022-11-20T00:27:46;42.63;;;17.05;;
65275;SDS011;51875;49.994;14.052;2022-11-20T00:29:01;44.50;;;16.40;;
65275;SDS011;51875;49.994;14.052;2022-11-20T00:30:17;49.25;;;17.48;;
65275;SDS011;51875;49.994;14.052;2022-11-20T00:31:34;49.15;;;17.73;;
65275;SDS011;51875;49.994;14.052;2022-11-20T00:32:50;44.63;;;16.58;;
65275;SDS011;51875;49.994;14.052;2022-11-20T00:34:05;44.28;;;17.83;;
65275;SDS011;51875;49.994;14.052;2022-11-20T00:35:21;50.60;;;17.35;;
65275;SDS011;51875;49.994;14.052;2022-11-20T00:36:37;55.42;;;18.90;;
65275;SDS011;51875;49.994;14.052;2022-11-20T00:37:52;45.05;;;17.17;;
65275;SDS011;51875;49.994;14.052;2022-11-20T00:39:08;48.50;;;18.08;;
65275;SDS011;51875;49.994;14.052;2022-11-20T00:40:23;47.15;;;17.90;;
65275;SDS011;51875;49.994;14.052;2022-11-20T00:41:39;49.70;;;18.25;;
65275;SDS011;51875;49.994;14.052;2022-11-20T00:42:54;55.17;;;18.83;;
65275;SDS011;51875;49.994;14.052;2022-11-20T00:44:10;55.60;;;18.75;;
65275;SDS011;51875;49.994;14.052;2022-11-20T00:45:26;52.88;;;19.75;;
65275;SDS011;51875;49.994;14.052;2022-11-20T00:46:41;50.90;;;18.27;;
65275;SDS011;51875;49.994;14.052;2022-11-20T00:47:57;50.22;;;18.10;;
65275;SDS011;51875;49.994;14.052;2022-11-20T00:49:12;46.90;;;18.27;;
65275;SDS011;51875;49.994;14.052;2022-11-20T00:50:28;46.08;;;17.33;;
65275;SDS011;51875;49.994;14.052;2022-11-20T00:51:44;52.15;;;19.23;;
65275;SDS011;51875;49.994;14.052;2022-11-20T00:52:59;43.75;;;15.93;;
65275;SDS011;51875;49.994;14.052;2022-11-20T00:54:15;50.78;;;17.50;;
65275;SDS011;51875;49.994;14.052;2022-11-20T00:55:30;46.47;;;16.40;;
65275;SDS011;51875;49.994;14.052;2022-11-20T00:56:46;49.97;;;18.23;;
65275;SDS011;51875;49.994;14.052;2022-11-20T00:58:01;43.58;;;17.42;;
65275;SDS011;51875;49.994;14.052;2022-11-20T00:59:17;42.20;;;17.17;;
65275;SDS011;51875;49.994;14.052;2022-11-20T01:00:33;51.20;;;18.00;;
65275;SDS011;51875;49.994;14.052;2022-11-20T01:01:49;50.20;;;17.77;;
65275;SDS011;51875;49.994;14.052;2022-11-20T01:03:04;44.92;;;17.38;;
65275;SDS011;51875;49.994;14.052;2022-11-20T01:04:20;45.40;;;16.55;;
65275;SDS011;51875;49.994;14.052;2022-11-20T01:05:36;50.45;;;17.92;;
65275;SDS011;51875;49.994;14.052;2022-11-20T01:06:51;44.22;;;15.68;;
65275;SDS011;51875;49.994;14.052;2022-11-20T01:08:07;45.28;;;15.40;;
65275;SDS011;51875;49.994;14.052;2022-11-20T01:09:22;48.13;;;16.67;;
65275;SDS011;51875;49.994;14.052;2022-11-20T01:10:38;45.92;;;17.05;;
65275;SDS011;51875;49.994;14.052;2022-11-20T01:11:54;34.45;;;14.63;;
65275;SDS011;51875;49.994;14.052;2022-11-20T01:13:10;44.97;;;15.82;;
65275;SDS011;51875;49.994;14.052;2022-11-20T01:14:43;42.42;;;17.02;;
65275;SDS011;51875;49.994;14.052;2022-11-20T01:16:34;44.67;;;16.15;;
65275;SDS011;51875;49.994;14.052;2022-11-20T01:17:46;41.38;;;14.50;;
65275;SDS011;51875;49.994;14.052;2022-11-20T01:19:02;43.67;;;15.88;;
65275;SDS011;51875;49.994;14.052;2022-11-20T01:20:20;43.20;;;16.55;;
65275;SDS011;51875;49.994;14.052;2022-11-20T01:21:37;47.05;;;17.05;;
65275;SDS011;51875;49.994;14.052;2022-11-20T01:22:54;43.60;;;15.85;;
65275;SDS011;51875;49.994;14.052;2022-11-20T01:24:11;44.83;;;15.32;;
65275;SDS011;51875;49.994;14.052;2022-11-20T01:25:28;46.72;;;17.33;;
65275;SDS011;51875;49.994;14.052;2022-11-20T01:26:44;41.72;;;17.00;;
65275;SDS011;51875;49.994;14.052;2022-11-20T01:28:02;49.65;;;17.95;;
65275;SDS011;51875;49.994;14.052;2022-11-20T01:29:19;44.38;;;17.25;;
65275;SDS011;51875;49.994;14.052;2022-11-20T01:30:36;41.83;;;16.60;;
65275;SDS011;51875;49.994;14.052;2022-11-20T01:31:51;41.50;;;16.30;;
65275;SDS011;51875;49.994;14.052;2022-11-20T01:33:08;44.35;;;15.35;;
65275;SDS011;51875;49.994;14.052;2022-11-20T01:34:23;47.17;;;16.55;;
65275;SDS011;51875;49.994;14.052;2022-11-20T01:35:39;47.85;;;16.65;;
65275;SDS011;51875;49.994;14.052;2022-11-20T01:36:55;42.22;;;15.13;;
65275;SDS011;51875;49.994;14.052;2022-11-20T01:38:11;45.90;;;15.98;;
65275;SDS011;51875;49.994;14.052;2022-11-20T01:39:26;40.10;;;16.08;;
65275;SDS011;51875;49.994;14.052;2022-11-20T01:40:42;38.58;;;15.65;;
65275;SDS011;51875;49.994;14.052;2022-11-20T01:41:58;40.25;;;16.55;;
65275;SDS011;51875;49.994;14.052;2022-11-20T01:43:33;42.35;;;16.23;;
65275;SDS011;51875;49.994;14.052;2022-11-20T01:44:58;42.53;;;16.05;;
65275;SDS011;51875;49.994;14.052;2022-11-20T01:46:18;47.30;;;17.52;;
65275;SDS011;51875;49.994;14.052;2022-11-20T01:47:35;39.40;;;16.05;;
65275;SDS011;51875;49.994;14.052;2022-11-20T01:49:11;54.42;;;18.08;;
65275;SDS011;51875;49.994;14.052;2022-11-20T01:50:34;43.20;;;16.85;;
65275;SDS011;51875;49.994;14.052;2022-11-20T01:51:51;39.42;;;14.70;;
65275;SDS011;51875;49.994;14.052;2022-11-20T01:53:11;44.38;;;15.85;;
65275;SDS011;51875;49.994;14.052;2022-11-20T01:54:38;40.65;;;16.63;;
65275;SDS011;51875;49.994;14.052;2022-11-20T01:55:58;47.42;;;16.67;;
65275;SDS011;51875;49.994;14.052;2022-11-20T01:57:16;45.65;;;17.55;;
65275;SDS011;51875;49.994;14.052;2022-11-20T01:58:35;42.90;;;14.77;;
65275;SDS011;51875;49.994;14.052;2022-11-20T01:59:59;49.63;;;17.05;;
65275;SDS011;51875;49.994;14.052;2022-11-20T02:01:18;41.05;;;16.25;;
65275;SDS011;51875;49.994;14.052;2022-11-20T02:02:36;46.15;;;17.20;;
65275;SDS011;51875;49.994;14.052;2022-11-20T02:03:53;45.00;;;17.20;;
65275;SDS011;51875;49.994;14.052;2022-11-20T02:05:28;45.50;;;17.13;;
65275;SDS011;51875;49.994;14.052;2022-11-20T02:06:50;40.95;;;16.95;;
65275;SDS011;51875;49.994;14.052;2022-11-20T02:08:11;39.92;;;16.65;;
65275;SDS011;51875;49.994;14.052;2022-11-20T02:09:28;41.83;;;15.93;;
65275;SDS011;51875;49.994;14.052;2022-11-20T02:10:43;44.63;;;17.55;;
65275;SDS011;51875;49.994;14.052;2022-11-20T02:11:59;44.20;;;16.92;;
65275;SDS011;51875;49.994;14.052;2022-11-20T02:13:15;41.45;;;16.98;;
65275;SDS011;51875;49.994;14.052;2022-11-20T02:14:50;45.22;;;17.20;;
65275;SDS011;51875;49.994;14.052;2022-11-20T02:16:08;44.13;;;17.45;;
65275;SDS011;51875;49.994;14.052;2022-11-20T02:17:29;43.22;;;16.90;;
65275;SDS011;51875;49.994;14.052;2022-11-20T02:18:44;44.00;;;17.00;;
65275;SDS011;51875;49.994;14.052;2022-11-20T02:20:01;44.70;;;17.20;;
65275;SDS011;51875;49.994;14.052;2022-11-20T02:23:04;44.00;;;15.82;;
65275;SDS011;51875;49.994;14.052;2022-11-20T02:24:27;43.03;;;17.00;;
65275;SDS011;51875;49.994;14.052;2022-11-20T02:25:42;39.72;;;15.60;;
65275;SDS011;51875;49.994;14.052;2022-11-20T02:27:07;48.13;;;18.00;;
65275;SDS011;51875;49.994;14.052;2022-11-20T02:28:24;45.78;;;17.70;;
65275;SDS011;51875;49.994;14.052;2022-11-20T02:29:57;41.83;;;17.33;;
65275;SDS011;51875;49.994;14.052;2022-11-20T02:31:17;38.50;;;14.27;;
65275;SDS011;51875;49.994;14.052;2022-11-20T02:32:33;41.33;;;16.27;;
65275;SDS011;51875;49.994;14.052;2022-11-20T02:33:54;45.03;;;16.25;;
65275;SDS011;51875;49.994;14.052;2022-11-20T02:36:35;44.85;;;16.80;;
65275;SDS011;51875;49.994;14.052;2022-11-20T02:37:54;40.28;;;15.82;;
65275;SDS011;51875;49.994;14.052;2022-11-20T02:39:11;43.58;;;17.02;;
65275;SDS011;51875;49.994;14.052;2022-11-20T02:40:31;44.70;;;17.15;;
65275;SDS011;51875;49.994;14.052;2022-11-20T02:41:47;43.45;;;15.80;;
65275;SDS011;51875;49.994;14.052;2022-11-20T02:43:03;48.22;;;17.58;;
65275;SDS011;51875;49.994;14.052;2022-11-20T02:44:18;51.58;;;18.13;;
65275;SDS011;51875;49.994;14.052;2022-11-20T02:45:34;44.92;;;17.33;;
65275;SDS011;51875;49.994;14.052;2022-11-20T02:46:49;45.80;;;18.38;;
65275;SDS011;51875;49.994;14.052;2022-11-20T02:48:05;47.58;;;17.65;;
65275;SDS011;51875;49.994;14.052;2022-11-20T02:49:22;48.00;;;17.98;;
65275;SDS011;51875;49.994;14.052;2022-11-20T02:50:38;46.55;;;18.95;;
65275;SDS011;51875;49.994;14.052;2022-11-20T02:51:55;45.58;;;17.90;;
65275;SDS011;51875;49.994;14.052;2022-11-20T02:53:10;45.38;;;16.95;;
65275;SDS011;51875;49.994;14.052;2022-11-20T02:54:26;42.45;;;16.40;;
65275;SDS011;51875;49.994;14.052;2022-11-20T02:55:42;44.70;;;16.55;;
65275;SDS011;51875;49.994;14.052;2022-11-20T02:56:57;42.03;;;16.92;;
65275;SDS011;51875;49.994;14.052;2022-11-20T02:58:13;41.95;;;16.23;;
65275;SDS011;51875;49.994;14.052;2022-11-20T02:59:29;36.95;;;14.98;;
65275;SDS011;51875;49.994;14.052;2022-11-20T03:00:44;46.38;;;17.25;;
65275;SDS011;51875;49.994;14.052;2022-11-20T03:02:00;47.70;;;17.17;;
65275;SDS011;51875;49.994;14.052;2022-11-20T03:03:16;43.53;;;17.63;;
65275;SDS011;51875;49.994;14.052;2022-11-20T03:04:31;48.60;;;18.15;;
65275;SDS011;51875;49.994;14.052;2022-11-20T03:05:47;46.00;;;17.23;;
65275;SDS011;51875;49.994;14.052;2022-11-20T03:07:02;42.22;;;16.98;;
65275;SDS011;51875;49.994;14.052;2022-11-20T03:08:19;43.97;;;15.90;;
65275;SDS011;51875;49.994;14.052;2022-11-20T03:09:34;45.78;;;17.48;;
65275;SDS011;51875;49.994;14.052;2022-11-20T03:10:50;48.85;;;17.73;;
65275;SDS011;51875;49.994;14.052;2022-11-20T03:12:05;46.10;;;16.75;;
65275;SDS011;51875;49.994;14.052;2022-11-20T03:13:21;44.25;;;16.55;;
65275;SDS011;51875;49.994;14.052;2022-11-20T03:14:37;47.17;;;17.20;;
65275;SDS011;51875;49.994;14.052;2022-11-20T03:15:52;41.45;;;16.27;;
65275;SDS011;51875;49.994;14.052;2022-11-20T03:17:08;47.15;;;17.30;;
65275;SDS011;51875;49.994;14.052;2022-11-20T03:18:27;42.55;;;16.40;;
65275;SDS011;51875;49.994;14.052;2022-11-20T03:19:43;42.55;;;14.45;;
65275;SDS011;51875;49.994;14.052;2022-11-20T03:20:59;42.70;;;16.42;;
65275;SDS011;51875;49.994;14.052;2022-11-20T03:22:15;44.08;;;17.75;;
65275;SDS011;51875;49.994;14.052;2022-11-20T03:23:31;41.70;;;16.17;;
65275;SDS011;51875;49.994;14.052;2022-11-20T03:24:47;40.17;;;16.55;;
65275;SDS011;51875;49.994;14.052;2022-11-20T03:26:13;41.22;;;17.13;;
65275;SDS011;51875;49.994;14.052;2022-11-20T03:27:33;43.03;;;16.45;;
65275;SDS011;51875;49.994;14.052;2022-11-20T03:28:50;44.28;;;17.40;;
65275;SDS011;51875;49.994;14.052;2022-11-20T03:30:14;41.03;;;15.90;;
65275;SDS011;51875;49.994;14.052;2022-11-20T03:31:31;42.83;;;16.38;;
65275;SDS011;51875;49.994;14.052;2022-11-20T03:32:52;43.80;;;16.27;;
65275;SDS011;51875;49.994;14.052;2022-11-20T03:34:10;47.33;;;18.35;;
65275;SDS011;51875;49.994;14.052;2022-11-20T03:35:26;41.20;;;16.40;;
65275;SDS011;51875;49.994;14.052;2022-11-20T03:36:42;41.60;;;17.35;;
65275;SDS011;51875;49.994;14.052;2022-11-20T03:37:58;41.45;;;16.65;;
65275;SDS011;51875;49.994;14.052;2022-11-20T03:39:13;40.38;;;16.42;;
65275;SDS011;51875;49.994;14.052;2022-11-20T03:40:29;43.60;;;16.88;;
65275;SDS011;51875;49.994;14.052;2022-11-20T03:41:44;43.05;;;18.08;;
65275;SDS011;51875;49.994;14.052;2022-11-20T03:43:00;37.65;;;16.10;;
65275;SDS011;51875;49.994;14.052;2022-11-20T03:44:16;49.50;;;18.02;;
65275;SDS011;51875;49.994;14.052;2022-11-20T03:45:31;40.13;;;16.67;;
65275;SDS011;51875;49.994;14.052;2022-11-20T03:46:47;45.33;;;17.30;;
65275;SDS011;51875;49.994;14.052;2022-11-20T03:48:02;40.85;;;16.08;;
65275;SDS011;51875;49.994;14.052;2022-11-20T03:49:18;43.10;;;16.10;;
65275;SDS011;51875;49.994;14.052;2022-11-20T03:50:34;43.45;;;17.52;;
65275;SDS011;51875;49.994;14.052;2022-11-20T03:51:49;51.25;;;18.25;;
65275;SDS011;51875;49.994;14.052;2022-11-20T03:53:05;40.97;;;16.27;;
65275;SDS011;51875;49.994;14.052;2022-11-20T03:54:21;49.42;;;18.27;;
65275;SDS011;51875;49.994;14.052;2022-11-20T03:55:36;46.67;;;16.75;;
65275;SDS011;51875;49.994;14.052;2022-11-20T03:56:52;44.33;;;17.13;;
65275;SDS011;51875;49.994;14.052;2022-11-20T03:58:08;45.55;;;17.02;;
65275;SDS011;51875;49.994;14.052;2022-11-20T03:59:24;45.15;;;17.38;;
65275;SDS011;51875;49.994;14.052;2022-11-20T04:00:40;43.30;;;17.20;;
65275;SDS011;51875;49.994;14.052;2022-11-20T04:01:55;42.03;;;17.48;;
65275;SDS011;51875;49.994;14.052;2022-11-20T04:03:11;38.85;;;16.35;;
65275;SDS011;51875;49.994;14.052;2022-11-20T04:04:26;45.70;;;17.27;;
65275;SDS011;51875;49.994;14.052;2022-11-20T04:05:42;40.20;;;16.67;;
65275;SDS011;51875;49.994;14.052;2022-11-20T04:06:57;40.58;;;16.88;;
65275;SDS011;51875;49.994;14.052;2022-11-20T04:08:13;46.70;;;17.73;;
65275;SDS011;51875;49.994;14.052;2022-11-20T04:09:29;45.15;;;17.33;;
65275;SDS011;51875;49.994;14.052;2022-11-20T04:10:44;40.83;;;17.00;;
65275;SDS011;51875;49.994;14.052;2022-11-20T04:12:00;43.70;;;16.38;;
65275;SDS011;51875;49.994;14.052;2022-11-20T04:13:15;41.45;;;15.85;;
65275;SDS011;51875;49.994;14.052;2022-11-20T04:14:31;46.40;;;17.63;;
65275;SDS011;51875;49.994;14.052;2022-11-20T04:15:47;46.13;;;19.35;;
65275;SDS011;51875;49.994;14.052;2022-11-20T04:17:03;44.80;;;17.00;;
65275;SDS011;51875;49.994;14.052;2022-11-20T04:18:19;41.90;;;16.65;;
65275;SDS011;51875;49.994;14.052;2022-11-20T04:19:34;45.60;;;17.20;;
65275;SDS011;51875;49.994;14.052;2022-11-20T04:20:50;47.38;;;18.35;;
65275;SDS011;51875;49.994;14.052;2022-11-20T04:22:05;42.03;;;16.88;;
65275;SDS011;51875;49.994;14.052;2022-11-20T04:23:21;48.35;;;19.13;;
65275;SDS011;51875;49.994;14.052;2022-11-20T04:24:37;49.75;;;18.88;;
65275;SDS011;51875;49.994;14.052;2022-11-20T04:25:52;46.72;;;18.08;;
65275;SDS011;51875;49.994;14.052;2022-11-20T04:27:08;42.65;;;17.58;;
65275;SDS011;51875;49.994;14.052;2022-11-20T04:28:24;43.05;;;17.83;;
65275;SDS011;51875;49.994;14.052;2022-11-20T04:29:39;42.03;;;17.75;;
65275;SDS011;51875;49.994;14.052;2022-11-20T04:31:01;43.60;;;18.13;;
65275;SDS011;51875;49.994;14.052;2022-11-20T04:32:24;42.20;;;17.10;;
65275;SDS011;51875;49.994;14.052;2022-11-20T04:33:39;42.03;;;16.08;;
65275;SDS011;51875;49.994;14.052;2022-11-20T04:34:56;44.03;;;17.80;;
65275;SDS011;51875;49.994;14.052;2022-11-20T04:36:15;47.03;;;17.77;;
65275;SDS011;51875;49.994;14.052;2022-11-20T04:37:35;44.08;;;16.98;;
65275;SDS011;51875;49.994;14.052;2022-11-20T04:39:12;43.80;;;17.50;;
65275;SDS011;51875;49.994;14.052;2022-11-20T04:40:28;41.83;;;17.42;;
65275;SDS011;51875;49.994;14.052;2022-11-20T04:41:44;43.13;;;16.55;;
65275;SDS011;51875;49.994;14.052;2022-11-20T04:42:59;45.20;;;18.05;;
65275;SDS011;51875;49.994;14.052;2022-11-20T04:44:15;43.08;;;17.10;;
65275;SDS011;51875;49.994;14.052;2022-11-20T04:45:31;42.95;;;17.88;;
65275;SDS011;51875;49.994;14.052;2022-11-20T04:46:46;42.60;;;15.85;;
65275;SDS011;51875;49.994;14.052;2022-11-20T04:48:02;40.80;;;16.33;;
65275;SDS011;51875;49.994;14.052;2022-11-20T04:49:17;44.35;;;17.25;;
65275;SDS011;51875;49.994;14.052;2022-11-20T04:50:33;45.50;;;17.30;;
65275;SDS011;51875;49.994;14.052;2022-11-20T04:51:49;42.08;;;17.02;;
65275;SDS011;51875;49.994;14.052;2022-11-20T04:53:04;40.20;;;17.35;;
65275;SDS011;51875;49.994;14.052;2022-11-20T04:54:20;40.80;;;16.92;;
65275;SDS011;51875;49.994;14.052;2022-11-20T04:55:35;40.60;;;17.40;;
65275;SDS011;51875;49.994;14.052;2022-11-20T04:56:51;47.78;;;18.05;;
65275;SDS011;51875;49.994;14.052;2022-11-20T04:58:06;45.92;;;17.83;;
65275;SDS011;51875;49.994;14.052;2022-11-20T04:59:24;46.58;;;18.33;;
65275;SDS011;51875;49.994;14.052;2022-11-20T05:00:39;38.33;;;16.48;;
65275;SDS011;51875;49.994;14.052;2022-11-20T05:01:55;44.70;;;18.13;;
65275;SDS011;51875;49.994;14.052;2022-11-20T05:03:10;42.00;;;17.88;;
65275;SDS011;51875;49.994;14.052;2022-11-20T05:04:26;44.95;;;18.35;;
65275;SDS011;51875;49.994;14.052;2022-11-20T05:05:42;44.25;;;17.35;;
65275;SDS011;51875;49.994;14.052;2022-11-20T05:06:57;43.45;;;17.45;;
65275;SDS011;51875;49.994;14.052;2022-11-20T05:08:13;46.15;;;16.77;;
65275;SDS011;51875;49.994;14.052;2022-11-20T05:09:29;43.35;;;16.42;;
65275;SDS011;51875;49.994;14.052;2022-11-20T05:10:45;45.25;;;17.58;;
65275;SDS011;51875;49.994;14.052;2022-11-20T05:12:01;43.70;;;16.50;;
65275;SDS011;51875;49.994;14.052;2022-11-20T05:13:16;41.08;;;16.52;;
65275;SDS011;51875;49.994;14.052;2022-11-20T05:14:32;43.08;;;17.10;;
65275;SDS011;51875;49.994;14.052;2022-11-20T05:15:47;40.05;;;17.75;;
65275;SDS011;51875;49.994;14.052;2022-11-20T05:17:03;39.50;;;17.25;;
65275;SDS011;51875;49.994;14.052;2022-11-20T05:18:18;48.53;;;18.40;;
65275;SDS011;51875;49.994;14.052;2022-11-20T05:19:34;38.70;;;17.52;;
65275;SDS011;51875;49.994;14.052;2022-11-20T05:20:54;47.33;;;18.70;;
65275;SDS011;51875;49.994;14.052;2022-11-20T05:22:10;43.63;;;17.38;;
65275;SDS011;51875;49.994;14.052;2022-11-20T05:23:25;36.30;;;16.65;;
65275;SDS011;51875;49.994;14.052;2022-11-20T05:24:42;43.45;;;17.08;;
65275;SDS011;51875;49.994;14.052;2022-11-20T05:25:58;43.70;;;17.23;;
65275;SDS011;51875;49.994;14.052;2022-11-20T05:27:14;41.95;;;16.67;;
65275;SDS011;51875;49.994;14.052;2022-11-20T05:28:30;42.15;;;18.55;;
65275;SDS011;51875;49.994;14.052;2022-11-20T05:29:46;47.33;;;18.63;;
65275;SDS011;51875;49.994;14.052;2022-11-20T05:31:05;39.35;;;17.00;;
65275;SDS011;51875;49.994;14.052;2022-11-20T05:32:28;44.17;;;16.33;;
65275;SDS011;51875;49.994;14.052;2022-11-20T05:33:44;36.60;;;15.30;;
65275;SDS011;51875;49.994;14.052;2022-11-20T05:35:00;43.10;;;17.45;;
65275;SDS011;51875;49.994;14.052;2022-11-20T05:36:16;46.03;;;17.98;;
65275;SDS011;51875;49.994;14.052;2022-11-20T05:37:32;40.67;;;16.40;;
65275;SDS011;51875;49.994;14.052;2022-11-20T05:38:47;42.72;;;15.32;;
65275;SDS011;51875;49.994;14.052;2022-11-20T05:40:03;47.63;;;18.27;;
65275;SDS011;51875;49.994;14.052;2022-11-20T05:41:19;45.97;;;17.05;;
65275;SDS011;51875;49.994;14.052;2022-11-20T05:42:35;47.05;;;18.80;;
65275;SDS011;51875;49.994;14.052;2022-11-20T05:43:51;46.20;;;18.05;;
65275;SDS011;51875;49.994;14.052;2022-11-20T05:45:07;63.70;;;24.40;;
65275;SDS011;51875;49.994;14.052;2022-11-20T05:46:23;52.25;;;21.90;;
65275;SDS011;51875;49.994;14.052;2022-11-20T05:47:39;46.55;;;18.08;;
65275;SDS011;51875;49.994;14.052;2022-11-20T05:48:54;42.35;;;18.10;;
65275;SDS011;51875;49.994;14.052;2022-11-20T05:50:10;45.28;;;18.58;;
65275;SDS011;51875;49.994;14.052;2022-11-20T05:51:26;39.55;;;17.33;;
65275;SDS011;51875;49.994;14.052;2022-11-20T05:52:42;45.50;;;18.35;;
65275;SDS011;51875;49.994;14.052;2022-11-20T05:53:57;49.78;;;19.08;;
65275;SDS011;51875;49.994;14.052;2022-11-20T05:55:13;43.78;;;18.73;;
65275;SDS011;51875;49.994;14.052;2022-11-20T05:56:29;55.58;;;18.42;;
65275;SDS011;51875;49.994;14.052;2022-11-20T05:57:45;45.25;;;18.20;;
65275;SDS011;51875;49.994;14.052;2022-11-20T05:59:00;42.28;;;18.38;;
65275;SDS011;51875;49.994;14.052;2022-11-20T06:00:16;44.30;;;17.85;;
65275;SDS011;51875;49.994;14.052;2022-11-20T06:01:32;51.00;;;18.35;;
65275;SDS011;51875;49.994;14.052;2022-11-20T06:02:48;46.50;;;18.08;;
65275;SDS011;51875;49.994;14.052;2022-11-20T06:04:03;53.28;;;19.83;;
65275;SDS011;51875;49.994;14.052;2022-11-20T06:05:19;44.95;;;18.85;;
65275;SDS011;51875;49.994;14.052;2022-11-20T06:06:34;46.22;;;17.65;;
65275;SDS011;51875;49.994;14.052;2022-11-20T06:07:50;45.45;;;17.92;;
65275;SDS011;51875;49.994;14.052;2022-11-20T06:09:05;45.03;;;18.15;;
65275;SDS011;51875;49.994;14.052;2022-11-20T06:10:21;45.47;;;18.23;;
65275;SDS011;51875;49.994;14.052;2022-11-20T06:11:37;45.45;;;18.40;;
65275;SDS011;51875;49.994;14.052;2022-11-20T06:12:52;45.50;;;18.45;;
65275;SDS011;51875;49.994;14.052;2022-11-20T06:14:08;46.20;;;17.83;;
65275;SDS011;51875;49.994;14.052;2022-11-20T06:15:24;45.92;;;17.70;;
65275;SDS011;51875;49.994;14.052;2022-11-20T06:16:39;49.30;;;18.63;;
65275;SDS011;51875;49.994;14.052;2022-11-20T06:17:55;47.58;;;18.90;;
65275;SDS011;51875;49.994;14.052;2022-11-20T06:19:11;46.92;;;19.90;;
65275;SDS011;51875;49.994;14.052;2022-11-20T06:20:26;44.30;;;19.15;;
65275;SDS011;51875;49.994;14.052;2022-11-20T06:21:42;44.05;;;18.17;;
65275;SDS011;51875;49.994;14.052;2022-11-20T06:22:58;52.40;;;21.63;;
65275;SDS011;51875;49.994;14.052;2022-11-20T06:24:13;53.63;;;22.60;;
65275;SDS011;51875;49.994;14.052;2022-11-20T06:25:29;43.35;;;19.15;;
65275;SDS011;51875;49.994;14.052;2022-11-20T06:26:44;50.03;;;19.00;;
65275;SDS011;51875;49.994;14.052;2022-11-20T06:28:00;46.47;;;17.40;;
65275;SDS011;51875;49.994;14.052;2022-11-20T06:29:16;39.30;;;16.27;;
65275;SDS011;51875;49.994;14.052;2022-11-20T06:30:31;46.85;;;18.45;;
65275;SDS011;51875;49.994;14.052;2022-11-20T06:31:47;46.45;;;18.33;;
65275;SDS011;51875;49.994;14.052;2022-11-20T06:33:03;42.22;;;17.42;;
65275;SDS011;51875;49.994;14.052;2022-11-20T06:34:19;41.35;;;17.27;;
65275;SDS011;51875;49.994;14.052;2022-11-20T06:35:34;42.72;;;17.58;;
65275;SDS011;51875;49.994;14.052;2022-11-20T06:36:50;44.05;;;16.60;;
65275;SDS011;51875;49.994;14.052;2022-11-20T06:38:05;41.42;;;17.13;;
65275;SDS011;51875;49.994;14.052;2022-11-20T06:39:21;43.92;;;18.05;;
65275;SDS011;51875;49.994;14.052;2022-11-20T06:40:39;49.88;;;18.42;;
65275;SDS011;51875;49.994;14.052;2022-11-20T06:41:55;48.55;;;18.95;;
65275;SDS011;51875;49.994;14.052;2022-11-20T06:43:12;46.13;;;19.00;;
65275;SDS011;51875;49.994;14.052;2022-11-20T06:44:27;50.03;;;22.60;;
65275;SDS011;51875;49.994;14.052;2022-11-20T06:45:43;76.32;;;28.00;;
65275;SDS011;51875;49.994;14.052;2022-11-20T06:46:59;67.13;;;27.83;;
65275;SDS011;51875;49.994;14.052;2022-11-20T06:48:14;68.90;;;25.80;;
65275;SDS011;51875;49.994;14.052;2022-11-20T06:49:30;54.38;;;21.35;;
65275;SDS011;51875;49.994;14.052;2022-11-20T06:50:45;54.00;;;19.98;;
65275;SDS011;51875;49.994;14.052;2022-11-20T06:52:01;51.05;;;21.13;;
65275;SDS011;51875;49.994;14.052;2022-11-20T06:53:17;55.50;;;21.38;;
65275;SDS011;51875;49.994;14.052;2022-11-20T06:54:32;52.67;;;21.42;;
65275;SDS011;51875;49.994;14.052;2022-11-20T06:55:48;48.10;;;20.83;;
65275;SDS011;51875;49.994;14.052;2022-11-20T06:57:04;45.92;;;20.42;;
65275;SDS011;51875;49.994;14.052;2022-11-20T06:58:20;50.88;;;22.10;;
65275;SDS011;51875;49.994;14.052;2022-11-20T06:59:35;74.05;;;25.67;;
65275;SDS011;51875;49.994;14.052;2022-11-20T07:00:51;62.53;;;24.23;;
65275;SDS011;51875;49.994;14.052;2022-11-20T07:02:10;83.13;;;28.70;;
65275;SDS011;51875;49.994;14.052;2022-11-20T07:03:27;74.30;;;27.25;;
65275;SDS011;51875;49.994;14.052;2022-11-20T07:04:42;76.50;;;25.27;;
65275;SDS011;51875;49.994;14.052;2022-11-20T07:05:58;54.08;;;20.75;;
65275;SDS011;51875;49.994;14.052;2022-11-20T07:07:15;46.33;;;18.15;;
65275;SDS011;51875;49.994;14.052;2022-11-20T07:08:31;50.60;;;19.02;;
65275;SDS011;51875;49.994;14.052;2022-11-20T07:09:47;53.92;;;20.73;;
65275;SDS011;51875;49.994;14.052;2022-11-20T07:11:04;49.17;;;20.52;;
65275;SDS011;51875;49.994;14.052;2022-11-20T07:12:21;57.10;;;21.40;;
65275;SDS011;51875;49.994;14.052;2022-11-20T07:13:36;52.20;;;20.52;;
65275;SDS011;51875;49.994;14.052;2022-11-20T07:14:52;43.28;;;17.55;;
65275;SDS011;51875;49.994;14.052;2022-11-20T07:16:07;52.63;;;19.02;;
65275;SDS011;51875;49.994;14.052;2022-11-20T07:17:23;50.15;;;18.75;;
65275;SDS011;51875;49.994;14.052;2022-11-20T07:18:39;46.80;;;19.55;;
65275;SDS011;51875;49.994;14.052;2022-11-20T07:19:55;46.83;;;19.50;;
65275;SDS011;51875;49.994;14.052;2022-11-20T07:21:10;45.72;;;19.13;;
65275;SDS011;51875;49.994;14.052;2022-11-20T07:22:26;55.83;;;19.05;;
65275;SDS011;51875;49.994;14.052;2022-11-20T07:23:41;57.20;;;19.75;;
65275;SDS011;51875;49.994;14.052;2022-11-20T07:24:57;56.63;;;19.80;;
65275;SDS011;51875;49.994;14.052;2022-11-20T07:26:12;56.80;;;20.27;;